Aérodrome :
LOGIN :

S'inscrire | Disclaimer

   EN    FR    IT 

 










Légende :    VFR   VFR Marginal   IFR   IFR Intensif   IFR Très Intensif
Visi : 
Plafond : 
>= 8 km
>= 3000ft
5 à 8 km
1000 à 3000 ft
1500m à 5 km
500 à 1000 ft
800 à 1500m
200 à 500 ft
< 800m
< 200 ft
Symboles :   Orages  Brouillard  Fortes neiges  Fortes précipitations  Vent > 20 kt
SIGMETs :   Divers  Orages  Givrage  Turbulence  Onde Orograph.  Cendres Volcan.







- Altitude de l'aérodrome : 195 ft
- Voir les cartes d'approche


LFMY - Salon de Provence

DERNIER METAR :
  • 231400Z AUTO 28008KT 220V330 CAVOK 29/13 Q1017 NOSIG

METARs EXPIRÉS :
  • 231330Z AUTO 30008KT 230V010 CAVOK 29/14 Q1017 NOSIG
  • 231300Z AUTO 33007KT 260V050 CAVOK 28/13 Q1017 NOSIG
  • 231230Z AUTO 31007KT 250V350 CAVOK 28/13 Q1018 NOSIG
  • 231200Z AUTO 32006KT 260V020 CAVOK 27/14 Q1018 NOSIG
  • 231130Z AUTO 30007KT 260V350 CAVOK 28/13 Q1018 NOSIG

TAF TAF LFMY
Valide du 23 à 09h jusqu'au 24 à 09h UTC


230800Z 2309/2409 33012KT CAVOK
Pas de NOTAMs connus pour ce terrain.



MET'MAP, la Météo Aéronautique d'un coup d'oeil ! - Copyright ORBIFLY Décembre 2007 - Disclaimer

ORBIFLY MET'MAP TEAM :

Programmation & Développement : Alexandra Zaïnal
Conception & Développement : Baudouin d'Aumeries
Co-Programmation & Développement : Marc-Olivier Méhu
Soutien technique & logistique : Manuel Goepfert

Contact : metmap@orbifly.com




SOURCES & CREDITS :

   NOAA